Fernie, Canada
Current Conditions -  °F | °C
As of 7:00 PM on Saturday 25 Oct 2014 (Local Time) from CWSW Reporting Station
Broken Clouds Broken Clouds  
Wind Chill:   Ceiling: 12000
Heat Index:   Visibility: 20mi
Dew Point:   Wind: 2mph
Humidity: 76%   Direction: NA
Pressure: 29.62"   Gusts: NA
Location:  49.51°N, 115.06°W
Report Text: CWSW 260100Z VRB02KT 20SM SCT060 BKN120 07/03 A2962 RMK SC4AC1 LAST OBS/NEXT 261300Z PRESFR SLP049 DENSITY ALT 4100FT
Loading
Personal Weather Stations






























Interactive Weather Map
Tropical Storm Tracking
New forecast layout! Learn more

10-Day Weather Forecast

Advertisements
Track Severe Weather on mobile